Time;durP1;ratioP1;P1;durP2;ratioP2;P2;SDS_P1;SDS_P2;PMS_P1;PMS_P2;Temp;Humidity;BMP_temperature;BMP_pressure;BME280_temperature;BME280_humidity;BME280_pressure;Samples;Min_cycle;Max_cycle;Signal;HPM_P1;HPM_P2
2023/07/05 00:00:28;;;;;;;7.28;2.60;;;;;;;11.61;100.00;100989.72;4996735;28;20184;-54
2023/07/05 00:02:54;;;;;;;8.48;2.75;;;;;;;11.63;100.00;101004.84;4993646;28;20213;-54
2023/07/05 00:05:19;;;;;;;10.70;2.50;;;;;;;11.64;100.00;100987.78;4991421;28;20718;-55
2023/07/05 00:07:46;;;;;;;8.43;2.47;;;;;;;11.55;100.00;100986.34;4997889;28;20267;-53
2023/07/05 00:10:13;;;;;;;7.60;2.55;;;;;;;11.60;100.00;100985.31;4995916;28;20181;-54
2023/07/05 00:12:38;;;;;;;10.15;2.75;;;;;;;11.57;100.00;100996.13;4993436;28;20173;-55
2023/07/05 00:15:05;;;;;;;9.20;2.75;;;;;;;11.52;100.00;101001.69;4999138;28;20756;-55
2023/07/05 00:17:32;;;;;;;10.45;3.05;;;;;;;11.55;100.00;100991.72;4996367;28;20372;-55
2023/07/05 00:19:59;;;;;;;12.25;3.63;;;;;;;11.53;100.00;101004.31;4996413;28;20177;-53
2023/07/05 00:22:26;;;;;;;10.02;2.90;;;;;;;11.53;100.00;100998.94;4997994;28;20375;-54
2023/07/05 00:24:53;;;;;;;7.45;2.50;;;;;;;11.52;100.00;100997.22;4996285;28;20283;-53
2023/07/05 00:27:20;;;;;;;6.13;2.80;;;;;;;11.53;100.00;100987.34;4991580;28;20177;-52
2023/07/05 00:29:45;;;;;;;9.40;2.72;;;;;;;11.50;100.00;100993.72;4998199;28;20200;-54
2023/07/05 00:32:10;;;;;;;9.23;3.17;;;;;;;11.50;100.00;100993.72;4997947;28;20170;-53
2023/07/05 00:34:36;;;;;;;6.80;2.90;;;;;;;11.52;100.00;100986.50;4995179;28;20288;-53
2023/07/05 00:37:02;;;;;;;6.50;3.13;;;;;;;11.57;100.00;100986.31;5016054;28;20647;-53
2023/07/05 00:39:27;;;;;;;7.75;2.53;;;;;;;11.54;100.00;100990.00;4996380;28;20682;-55
2023/07/05 00:41:53;;;;;;;8.00;2.38;;;;;;;11.56;100.00;100987.22;5010198;28;20188;-54
2023/07/05 00:44:18;;;;;;;9.35;2.40;;;;;;;11.61;100.00;100987.03;4996777;28;20367;-53
2023/07/05 00:46:48;;;;;;;9.30;2.63;;;;;;;11.62;100.00;100972.69;4997304;28;20489;-53
2023/07/05 00:49:17;;;;;;;6.45;2.20;;;;;;;11.63;100.00;100969.06;4997719;28;20235;-52
2023/07/05 00:52:04;;;;;;;7.32;2.30;;;;;;;11.69;100.00;100950.91;4996420;28;20283;-53
2023/07/05 00:54:34;;;;;;;7.30;2.53;;;;;;;11.60;100.00;100939.69;4997854;28;20958;-53
2023/07/05 00:57:07;;;;;;;8.50;2.10;;;;;;;11.47;100.00;100950.03;4990350;28;20272;-54
2023/07/05 00:59:42;;;;;;;8.20;1.90;;;;;;;11.39;100.00;100957.50;4993643;28;20260;-53
2023/07/05 01:02:08;;;;;;;5.72;2.22;;;;;;;11.50;100.00;100932.00;4999964;28;20262;-55
2023/07/05 01:04:34;;;;;;;6.82;2.17;;;;;;;11.39;100.00;100925.31;4997851;28;20200;-55
2023/07/05 01:07:00;;;;;;;5.85;2.20;;;;;;;11.30;100.00;100926.53;4997822;28;20193;-53
2023/07/05 01:09:26;;;;;;;6.38;2.20;;;;;;;11.44;100.00;100917.97;4994566;28;20184;-54
2023/07/05 01:12:02;;;;;;;6.63;2.00;;;;;;;11.42;100.00;100903.75;5001511;28;20185;-54
2023/07/05 01:14:35;;;;;;;5.47;2.20;;;;;;;11.34;100.00;100920.13;5004584;28;20193;-53
2023/07/05 01:17:10;;;;;;;7.68;2.47;;;;;;;11.19;100.00;100913.56;5007260;28;20193;-54
2023/07/05 01:19:58;;;;;;;4.95;2.40;;;;;;;11.24;100.00;100913.38;4991060;28;20769;-53
2023/07/05 01:22:47;;;;;;;8.70;3.10;;;;;;;11.22;100.00;100918.81;5014932;28;20204;-54
2023/07/05 01:25:18;;;;;;;7.10;3.58;;;;;;;11.38;100.00;100912.84;4996972;28;20231;-54
2023/07/05 01:28:14;;;;;;;7.82;2.85;;;;;;;11.41;100.00;100896.59;5020013;28;20194;-54
2023/07/05 01:31:07;;;;;;;6.15;2.47;;;;;;;11.38;100.00;100886.88;5001764;28;20233;-55
2023/07/05 01:33:43;;;;;;;7.25;2.72;;;;;;;11.42;100.00;100891.19;5014827;28;20311;-52
2023/07/05 01:36:11;;;;;;;6.07;2.40;;;;;;;11.36;100.00;100912.91;5003838;28;20299;-56
2023/07/05 01:38:37;;;;;;;7.75;2.80;;;;;;;11.39;100.00;100901.16;5002268;28;20268;-53
2023/07/05 01:41:07;;;;;;;5.32;2.63;;;;;;;11.44;100.00;100905.41;5000830;28;20284;-54
2023/07/05 01:43:36;;;;;;;6.82;2.90;;;;;;;11.43;100.00;100911.69;4995564;28;20209;-53
2023/07/05 01:46:22;;;;;;;7.75;3.33;;;;;;;11.53;100.00;100912.22;5001152;28;20644;-53
2023/07/05 01:49:06;;;;;;;6.28;3.10;;;;;;;11.52;100.00;100903.31;4991041;28;20209;-55
2023/07/05 01:51:46;;;;;;;6.22;3.08;;;;;;;11.60;100.00;100902.09;4997272;28;20180;-55
2023/07/05 01:54:25;;;;;;;5.55;3.10;;;;;;;11.57;100.00;100894.16;5004489;28;20209;-53
2023/07/05 01:56:55;;;;;;;9.68;2.90;;;;;;;11.63;100.00;100893.91;4997235;28;20181;-54
2023/07/05 01:59:26;;;;;;;7.35;3.13;;;;;;;11.58;100.00;100887.88;5005923;28;20672;-56
2023/07/05 02:01:55;;;;;;;11.90;3.70;;;;;;;11.61;100.00;100883.28;5013683;28;20219;-53
2023/07/05 02:04:23;;;;;;;5.63;3.60;;;;;;;11.59;100.00;100882.47;4999343;28;20208;-53
2023/07/05 02:06:51;;;;;;;4.90;3.53;;;;;;;11.65;100.00;100884.00;4994473;28;20184;-55
2023/07/05 02:09:16;;;;;;;8.15;3.40;;;;;;;11.72;100.00;100878.31;5001876;28;20539;-56
2023/07/05 02:11:42;;;;;;;6.65;3.55;;;;;;;11.75;100.00;100871.94;4993590;28;20247;-56
2023/07/05 02:14:08;;;;;;;5.78;3.63;;;;;;;11.85;100.00;100873.31;4997739;28;20189;-55
2023/07/05 02:16:34;;;;;;;5.30;2.95;;;;;;;11.99;100.00;100869.19;4998341;28;20181;-55
2023/07/05 02:18:59;;;;;;;6.53;3.10;;;;;;;11.94;100.00;100856.81;5001912;28;20227;-53
2023/07/05 02:21:25;;;;;;;6.85;2.88;;;;;;;11.97;100.00;100854.94;4997827;28;20519;-53
2023/07/05 02:23:50;;;;;;;9.50;3.13;;;;;;;12.00;100.00;100846.75;5019368;28;20217;-55
2023/07/05 02:26:16;;;;;;;8.18;3.45;;;;;;;11.99;100.00;100853.94;5002274;28;20247;-54
2023/07/05 02:28:41;;;;;;;5.85;3.13;;;;;;;12.03;100.00;100846.63;5000424;28;20179;-56
2023/07/05 02:31:11;;;;;;;10.63;3.60;;;;;;;12.05;100.00;100850.13;4997960;28;20538;-55
2023/07/05 02:33:39;;;;;;;15.40;3.78;;;;;;;12.09;100.00;100841.88;4999608;28;20192;-54
2023/07/05 02:36:12;;;;;;;9.00;2.60;;;;;;;12.16;100.00;100839.78;5000281;28;20187;-52
2023/07/05 02:38:39;;;;;;;6.10;2.20;;;;;;;12.20;100.00;100825.28;5002771;28;20272;-55
2023/07/05 02:41:05;;;;;;;9.10;2.70;;;;;;;12.24;100.00;100828.66;4994385;28;20208;-52
2023/07/05 02:43:30;;;;;;;6.50;2.67;;;;;;;12.32;100.00;100826.50;5000611;28;20646;-55
2023/07/05 02:45:56;;;;;;;5.53;2.03;;;;;;;12.41;100.00;100820.72;5000008;28;20360;-56
2023/07/05 02:48:22;;;;;;;5.38;2.28;;;;;;;12.44;100.00;100815.22;4999428;28;20272;-55
2023/07/05 02:50:48;;;;;;;8.38;2.58;;;;;;;12.48;100.00;100807.88;5003658;28;20317;-53
2023/07/05 02:53:13;;;;;;;7.93;2.47;;;;;;;12.50;100.00;100792.53;4994482;28;20331;-56
2023/07/05 02:55:38;;;;;;;6.90;2.40;;;;;;;12.52;100.00;100787.97;4998159;28;20199;-53
2023/07/05 02:58:04;;;;;;;7.20;2.45;;;;;;;12.50;100.00;100771.91;5005406;28;20706;-52
2023/07/05 03:00:30;;;;;;;7.70;2.38;;;;;;;12.60;100.00;100777.72;4996210;28;20181;-53
2023/07/05 03:02:56;;;;;;;5.68;2.10;;;;;;;12.52;100.00;100772.72;4995248;28;20284;-53
2023/07/05 03:05:23;;;;;;;6.95;1.98;;;;;;;12.54;100.00;100769.97;4996044;28;20708;-54
2023/07/05 03:07:48;;;;;;;10.18;2.40;;;;;;;12.55;100.00;100764.53;5000513;28;20197;-55
2023/07/05 03:10:14;;;;;;;9.65;2.45;;;;;;;12.56;100.00;100754.63;4998971;28;20173;-54
2023/07/05 03:12:40;;;;;;;10.55;2.55;;;;;;;12.61;100.00;100741.84;4995523;28;20190;-54
2023/07/05 03:15:06;;;;;;;5.03;2.50;;;;;;;12.65;100.00;100743.44;4998604;28;20275;-54
2023/07/05 03:17:33;;;;;;;7.13;2.50;;;;;;;12.60;100.00;100733.88;5002195;28;20188;-55
2023/07/05 03:19:59;;;;;;;9.77;2.72;;;;;;;12.56;100.00;100725.06;5012800;28;20178;-53
2023/07/05 03:22:28;;;;;;;10.15;2.60;;;;;;;12.54;100.00;100724.28;4999121;28;20271;-54
2023/07/05 03:24:54;;;;;;;7.35;2.35;;;;;;;12.57;100.00;100713.34;4994897;28;20292;-54
2023/07/05 03:27:20;;;;;;;4.90;2.75;;;;;;;12.58;100.00;100704.38;4999532;28;20199;-53
2023/07/05 03:29:47;;;;;;;8.07;2.78;;;;;;;12.57;100.00;100702.59;4996117;28;20184;-52
2023/07/05 03:32:14;;;;;;;6.95;2.50;;;;;;;12.67;100.00;100703.06;5018681;28;20638;-54
2023/07/05 03:34:40;;;;;;;6.72;2.75;;;;;;;12.58;100.00;100702.53;4998887;28;20205;-51
2023/07/05 03:37:05;;;;;;;10.38;2.45;;;;;;;12.50;100.00;100704.72;4999895;28;20184;-51
2023/07/05 03:39:31;;;;;;;7.18;2.65;;;;;;;12.49;100.00;100711.06;5001169;28;20238;-51
2023/07/05 03:41:57;;;;;;;8.70;2.75;;;;;;;12.52;100.00;100705.53;5000534;28;20260;-53
2023/07/05 03:44:24;;;;;;;4.15;2.67;;;;;;;12.48;100.00;100717.34;4995581;28;20766;-51
2023/07/05 03:46:50;;;;;;;8.57;2.95;;;;;;;12.51;100.00;100719.06;4997314;28;20184;-51
2023/07/05 03:49:16;;;;;;;8.23;3.33;;;;;;;12.54;100.00;100713.53;4994322;28;20177;-49
2023/07/05 03:51:41;;;;;;;7.28;2.83;;;;;;;12.53;100.00;100696.53;4997377;28;20661;-50
2023/07/05 03:54:07;;;;;;;10.80;3.10;;;;;;;12.57;100.00;100691.84;4999495;28;20193;-52
2023/07/05 03:56:34;;;;;;;4.55;3.10;;;;;;;12.54;100.00;100689.34;4996694;28;20643;-50
2023/07/05 03:59:00;;;;;;;5.95;2.83;;;;;;;12.54;100.00;100681.28;4996554;28;20191;-51
2023/07/05 04:01:27;;;;;;;7.93;3.10;;;;;;;12.54;100.00;100678.59;4991063;28;20732;-50
2023/07/05 04:03:56;;;;;;;5.93;2.90;;;;;;;12.53;100.00;100679.53;4995531;28;20675;-49
2023/07/05 04:06:24;;;;;;;6.72;3.33;;;;;;;12.55;100.00;100669.56;4997826;28;20185;-50
2023/07/05 04:08:50;;;;;;;6.78;3.08;;;;;;;12.63;100.00;100663.81;4999409;28;20184;-50
2023/07/05 04:11:15;;;;;;;4.45;3.10;;;;;;;12.62;100.00;100656.72;4995999;28;20196;-50
2023/07/05 04:13:41;;;;;;;5.25;3.13;;;;;;;12.64;100.00;100661.06;4996991;28;20267;-49
2023/07/05 04:16:18;;;;;;;10.45;3.30;;;;;;;12.66;100.00;100659.19;5001105;28;20223;-52
2023/07/05 04:18:45;;;;;;;6.20;3.10;;;;;;;12.68;100.00;100648.31;4994121;28;20670;-52
2023/07/05 04:21:11;;;;;;;6.95;3.40;;;;;;;12.73;100.00;100639.09;4993715;28;20252;-53
2023/07/05 04:23:38;;;;;;;7.40;3.08;;;;;;;12.76;100.00;100632.69;4994162;28;20260;-51
2023/07/05 04:26:09;;;;;;;6.78;3.13;;;;;;;12.73;100.00;100620.28;4994573;28;20209;-49
2023/07/05 04:28:36;;;;;;;8.88;2.92;;;;;;;12.75;100.00;100615.69;4996282;28;20520;-52
2023/07/05 04:31:02;;;;;;;9.48;3.00;;;;;;;12.75;100.00;100617.53;4996867;28;20177;-49
2023/07/05 04:33:28;;;;;;;10.57;3.42;;;;;;;12.78;100.00;100614.66;4998328;28;20284;-50
2023/07/05 04:35:57;;;;;;;6.75;3.17;;;;;;;12.80;100.00;100622.66;4998762;28;20713;-49
2023/07/05 04:38:22;;;;;;;7.63;3.35;;;;;;;12.81;100.00;100614.50;4993454;28;20177;-48
2023/07/05 04:40:48;;;;;;;5.97;3.08;;;;;;;12.91;100.00;100614.91;4997275;28;20255;-53
2023/07/05 04:43:13;;;;;;;10.43;3.63;;;;;;;12.94;100.00;100621.03;5000008;28;20319;-50
2023/07/05 04:45:39;;;;;;;9.30;3.63;;;;;;;12.97;100.00;100618.16;5003099;28;20243;-50
2023/07/05 04:48:05;;;;;;;6.93;3.00;;;;;;;13.02;100.00;100612.53;4999450;28;20259;-50
2023/07/05 04:50:30;;;;;;;8.02;3.63;;;;;;;13.00;100.00;100611.75;5004869;28;20231;-52
2023/07/05 04:52:56;;;;;;;5.93;3.20;;;;;;;13.04;100.00;100610.63;5002269;28;20230;-49
2023/07/05 04:55:22;;;;;;;10.88;3.63;;;;;;;12.99;100.00;100618.09;5000646;28;20213;-48
2023/07/05 04:57:48;;;;;;;5.47;3.80;;;;;;;12.86;100.00;100611.59;4999226;28;20307;-50
2023/07/05 05:00:14;;;;;;;11.00;4.10;;;;;;;12.81;100.00;100621.69;5000800;28;20613;-50
2023/07/05 05:02:39;;;;;;;6.00;3.88;;;;;;;12.79;100.00;100613.75;4999864;28;20210;-49
2023/07/05 05:05:06;;;;;;;9.30;4.50;;;;;;;12.78;100.00;100609.28;5001354;28;20200;-51
2023/07/05 05:07:32;;;;;;;9.52;4.32;;;;;;;12.82;100.00;100599.25;5006448;28;20552;-49
2023/07/05 05:09:59;;;;;;;11.00;4.53;;;;;;;12.80;100.00;100591.25;5003119;28;20195;-50
2023/07/05 05:12:25;;;;;;;5.70;3.92;;;;;;;12.77;100.00;100576.16;5000361;28;20185;-51
2023/07/05 05:14:51;;;;;;;7.47;4.07;;;;;;;12.83;100.00;100576.78;5004316;28;20267;-51
2023/07/05 05:17:16;;;;;;;9.93;4.70;;;;;;;12.83;100.00;100580.34;5005855;28;20192;-52
2023/07/05 05:19:42;;;;;;;10.23;5.15;;;;;;;12.75;100.00;100572.69;5001471;28;20173;-49
2023/07/05 05:22:10;;;;;;;11.02;5.47;;;;;;;12.77;100.00;100559.19;4998218;28;20258;-51
2023/07/05 05:24:35;;;;;;;8.00;4.57;;;;;;;12.78;100.00;100568.97;5001182;28;20217;-49
2023/07/05 05:27:00;;;;;;;11.80;5.03;;;;;;;12.80;100.00;100574.28;4996437;28;20590;-49
2023/07/05 05:29:26;;;;;;;9.75;5.75;;;;;;;12.71;100.00;100576.47;5003358;28;20180;-50
2023/07/05 05:31:51;;;;;;;8.85;5.13;;;;;;;12.72;100.00;100571.97;4997305;28;20291;-48
2023/07/05 05:34:17;;;;;;;8.05;5.10;;;;;;;12.72;100.00;100569.28;4996850;28;20216;-49
2023/07/05 05:36:42;;;;;;;11.57;5.53;;;;;;;12.75;100.00;100561.06;5002112;28;20219;-48
2023/07/05 05:39:08;;;;;;;12.40;5.88;;;;;;;12.73;100.00;100573.72;4998373;28;20663;-48
2023/07/05 05:41:34;;;;;;;8.05;5.43;;;;;;;12.76;100.00;100563.66;5002129;28;20254;-50
2023/07/05 05:43:59;;;;;;;11.85;5.82;;;;;;;12.72;100.00;100559.38;5002625;28;20615;-48
2023/07/05 05:46:25;;;;;;;12.77;6.10;;;;;;;12.85;100.00;100539.94;5002418;28;20219;-49
2023/07/05 05:48:50;;;;;;;12.52;6.00;;;;;;;12.85;100.00;100535.44;4997347;28;20180;-49
2023/07/05 05:51:16;;;;;;;10.85;6.10;;;;;;;12.75;100.00;100532.38;4995144;28;20231;-51
2023/07/05 05:53:42;;;;;;;12.75;5.57;;;;;;;12.77;100.00;100533.16;4997482;28;20192;-51
2023/07/05 05:56:07;;;;;;;9.68;5.40;;;;;;;12.74;100.00;100519.84;4999387;28;20614;-49
2023/07/05 05:58:32;;;;;;;11.48;5.78;;;;;;;12.77;100.00;100533.16;4997254;28;20169;-50
2023/07/05 06:01:02;;;;;;;12.18;5.55;;;;;;;12.87;100.00;100522.78;4995572;28;20231;-50
2023/07/05 06:03:28;;;;;;;9.38;6.05;;;;;;;12.81;100.00;100514.16;4996564;28;20197;-50
2023/07/05 06:05:54;;;;;;;10.20;5.95;;;;;;;12.84;100.00;100522.09;4995902;28;20673;-49
2023/07/05 06:08:19;;;;;;;14.07;5.95;;;;;;;12.81;100.00;100506.09;4999248;28;20259;-50
2023/07/05 06:10:46;;;;;;;10.73;5.85;;;;;;;12.88;100.00;100494.06;4997072;28;20265;-51
2023/07/05 06:13:12;;;;;;;15.77;6.35;;;;;;;12.80;100.00;100483.72;4993543;28;20652;-51
2023/07/05 06:15:38;;;;;;;11.25;5.78;;;;;;;12.84;100.00;100477.25;5002079;28;20240;-52
2023/07/05 06:18:04;;;;;;;9.23;6.13;;;;;;;12.91;100.00;100469.72;4991845;28;20260;-49
2023/07/05 06:20:33;;;;;;;12.13;6.60;;;;;;;12.89;100.00;100461.72;4998106;28;20272;-49
2023/07/05 06:23:00;;;;;;;8.20;5.50;;;;;;;12.97;100.00;100450.56;5000224;28;20248;-52
2023/07/05 06:25:25;;;;;;;10.88;5.93;;;;;;;12.96;100.00;100443.44;4998329;28;20188;-48
2023/07/05 06:27:51;;;;;;;7.13;5.40;;;;;;;13.02;100.00;100431.50;4995919;28;20199;-48
2023/07/05 06:30:16;;;;;;;11.15;6.22;;;;;;;12.99;100.00;100424.47;5000397;28;20183;-50
2023/07/05 06:32:43;;;;;;;9.30;6.28;;;;;;;12.98;100.00;100422.72;5000246;28;20632;-50
2023/07/05 06:35:09;;;;;;;10.52;6.35;;;;;;;12.93;100.00;100414.03;4999387;28;20217;-50
2023/07/05 06:37:35;;;;;;;12.85;6.28;;;;;;;12.98;100.00;100411.94;4998651;28;20629;-51
2023/07/05 06:40:00;;;;;;;12.00;6.38;;;;;;;12.95;100.00;100413.00;5001647;28;20170;-49
2023/07/05 06:42:26;;;;;;;9.43;5.85;;;;;;;12.95;100.00;100412.13;4998785;28;20288;-51
2023/07/05 06:44:57;;;;;;;12.43;6.80;;;;;;;12.95;100.00;100401.38;4999523;28;20193;-52
2023/07/05 06:47:23;;;;;;;12.07;6.32;;;;;;;12.88;100.00;100397.25;4994300;28;20200;-49
2023/07/05 06:49:48;;;;;;;10.35;5.78;;;;;;;12.89;100.00;100381.06;5000644;28;20188;-50
2023/07/05 06:52:14;;;;;;;14.27;6.20;;;;;;;12.89;100.00;100391.81;4998483;28;20177;-51
2023/07/05 06:54:39;;;;;;;11.05;6.57;;;;;;;13.03;100.00;100382.09;5013435;23;20211;-47
2023/07/05 06:57:05;;;;;;;12.23;7.05;;;;;;;13.00;100.00;100383.16;5002132;28;20491;-48
2023/07/05 06:59:32;;;;;;;8.82;6.40;;;;;;;12.99;100.00;100373.38;5027351;28;20176;-48
2023/07/05 07:01:57;;;;;;;11.15;7.10;;;;;;;12.95;100.00;100363.72;5013703;28;20172;-47
2023/07/05 07:04:23;;;;;;;11.68;7.10;;;;;;;12.93;100.00;100358.44;5009783;28;20320;-47
2023/07/05 07:06:49;;;;;;;9.68;6.68;;;;;;;12.94;100.00;100352.13;4997776;28;20192;-48
2023/07/05 07:09:14;;;;;;;13.38;7.40;;;;;;;13.04;100.00;100359.66;4976935;28;20170;-49
2023/07/05 07:11:40;;;;;;;14.60;7.28;;;;;;;13.00;100.00;100353.56;4984089;28;20194;-48
2023/07/05 07:14:05;;;;;;;10.32;6.85;;;;;;;12.99;100.00;100350.03;4985466;28;20257;-48
2023/07/05 07:16:31;;;;;;;11.85;7.75;;;;;;;13.04;100.00;100356.97;4987552;28;20166;-45
2023/07/05 07:18:56;;;;;;;13.52;7.38;;;;;;;13.07;100.00;100338.81;4986690;28;20196;-48
2023/07/05 07:21:23;;;;;;;12.98;7.53;;;;;;;13.07;100.00;100354.09;4983629;28;20341;-47
2023/07/05 07:23:49;;;;;;;13.95;7.93;;;;;;;13.09;100.00;100338.75;5002059;28;20205;-47
2023/07/05 07:26:18;;;;;;;12.80;8.35;;;;;;;13.02;100.00;100350.81;4985722;28;20553;-47
2023/07/05 07:28:49;;;;;;;14.82;7.97;;;;;;;12.98;100.00;100350.97;4990158;28;20251;-46
2023/07/05 07:31:19;;;;;;;16.77;8.15;;;;;;;12.99;100.00;100346.47;5006184;28;20317;-48
2023/07/05 07:33:46;;;;;;;16.15;8.07;;;;;;;12.98;100.00;100342.91;4984330;28;20232;-48
2023/07/05 07:36:22;;;;;;;13.40;9.25;;;;;;;12.97;100.00;100351.06;4986879;28;20488;-46
2023/07/05 07:38:49;;;;;;;12.68;8.82;;;;;;;12.98;100.00;100337.50;4980636;28;20180;-47
2023/07/05 07:41:19;;;;;;;13.38;8.65;;;;;;;12.94;100.00;100325.22;4980548;28;20181;-47
2023/07/05 07:43:46;;;;;;;13.65;9.63;;;;;;;12.94;100.00;100330.59;4979234;28;20214;-48
2023/07/05 07:46:14;;;;;;;15.88;9.55;;;;;;;12.96;100.00;100333.19;4981506;28;20249;-47
2023/07/05 07:48:42;;;;;;;11.93;9.27;;;;;;;12.98;100.00;100325.91;4984593;28;20189;-47
2023/07/05 07:51:09;;;;;;;14.05;9.73;;;;;;;13.05;100.00;100331.78;4981532;28;20317;-46
2023/07/05 07:53:34;;;;;;;13.27;9.88;;;;;;;13.01;100.00;100341.00;4985238;28;20212;-45
2023/07/05 07:56:00;;;;;;;11.40;10.20;;;;;;;12.98;100.00;100333.97;4982910;28;20589;-47
2023/07/05 07:58:26;;;;;;;12.48;9.30;;;;;;;12.98;100.00;100334.81;4967407;28;20189;-48
2023/07/05 08:00:52;;;;;;;13.93;10.45;;;;;;;12.97;100.00;100326.88;4984924;28;20192;-46
2023/07/05 08:03:18;;;;;;;16.73;10.70;;;;;;;12.96;100.00;100319.75;4978573;28;20275;-45
2023/07/05 08:05:43;;;;;;;12.40;10.15;;;;;;;13.01;100.00;100323.06;4979423;28;20214;-46
2023/07/05 08:08:09;;;;;;;14.65;10.60;;;;;;;12.98;100.00;100336.66;4987111;28;20193;-46
2023/07/05 08:10:34;;;;;;;14.32;10.27;;;;;;;13.02;100.00;100326.59;4972711;28;20268;-47
2023/07/05 08:13:00;;;;;;;14.10;10.70;;;;;;;12.99;100.00;100319.59;4975589;28;20221;-46
2023/07/05 08:15:25;;;;;;;12.75;10.52;;;;;;;13.01;100.00;100325.75;4969779;28;20205;-49
2023/07/05 08:17:51;;;;;;;15.27;10.25;;;;;;;13.04;100.00;100324.69;4982884;28;20204;-47
2023/07/05 08:20:16;;;;;;;15.25;10.95;;;;;;;13.09;100.00;100318.09;4982085;28;20225;-47
2023/07/05 08:22:42;;;;;;;14.98;10.38;;;;;;;13.09;100.00;100327.97;4980734;28;20205;-48
2023/07/05 08:25:07;;;;;;;13.55;10.57;;;;;;;13.09;100.00;100318.09;4983502;28;20513;-47
2023/07/05 08:27:33;;;;;;;16.63;11.25;;;;;;;13.08;100.00;100321.75;4998023;28;20174;-48
2023/07/05 08:29:58;;;;;;;14.15;11.43;;;;;;;13.11;100.00;100320.69;4978540;28;20186;-47
2023/07/05 08:32:24;;;;;;;13.27;10.75;;;;;;;13.10;100.00;100322.53;4977942;28;20440;-48
2023/07/05 08:34:50;;;;;;;17.92;11.63;;;;;;;13.14;100.00;100329.47;4979505;28;20197;-46
2023/07/05 08:37:16;;;;;;;14.15;11.55;;;;;;;13.13;100.00;100329.56;4980013;28;20185;-48
2023/07/05 08:39:41;;;;;;;14.50;10.57;;;;;;;13.21;100.00;100321.91;4980901;28;20261;-48
2023/07/05 08:42:46;;;;;;;17.75;11.73;;;;;;;13.14;100.00;100326.78;4979230;28;20174;-49
2023/07/05 08:45:18;;;;;;;14.73;11.27;;;;;;;13.20;100.00;100328.22;4977214;28;20578;-47
2023/07/05 08:47:51;;;;;;;13.23;11.35;;;;;;;13.19;100.00;100342.66;4979476;28;20260;-48
2023/07/05 08:50:25;;;;;;;18.58;11.45;;;;;;;13.22;100.00;100336.22;4979073;28;20194;-47
2023/07/05 08:52:59;;;;;;;16.45;11.20;;;;;;;13.25;100.00;100330.66;4975231;28;20501;-48
2023/07/05 08:55:42;;;;;;;14.38;11.07;;;;;;;13.28;100.00;100344.84;4978656;28;20228;-51
2023/07/05 08:58:11;;;;;;;17.60;11.05;;;;;;;13.32;100.00;100334.78;4977387;28;20217;-48
2023/07/05 09:01:05;;;;;;;13.00;11.45;;;;;;;13.50;100.00;100343.63;4984914;28;20644;-46
2023/07/05 09:03:32;;;;;;;12.40;10.82;;;;;;;13.63;100.00;100333.84;4982597;28;20214;-46
2023/07/05 09:06:33;;;;;;;13.90;11.15;;;;;;;13.82;100.00;100347.09;4981502;28;20200;-47
2023/07/05 09:09:24;;;;;;;14.68;10.80;;;;;;;13.85;100.00;100352.31;4984931;28;20572;-47
2023/07/05 09:12:00;;;;;;;13.75;11.25;;;;;;;14.06;100.00;100342.06;4983726;28;20655;-46
2023/07/05 09:14:40;;;;;;;13.45;10.88;;;;;;;14.07;100.00;100348.31;4981512;28;20256;-47
2023/07/05 09:17:24;;;;;;;16.38;11.55;;;;;;;14.14;100.00;100341.59;4977533;28;20182;-46
2023/07/05 09:20:02;;;;;;;12.98;11.20;;;;;;;14.16;100.00;100335.16;4985317;28;20180;-48
2023/07/05 09:22:36;;;;;;;16.90;10.73;;;;;;;14.18;100.00;100344.00;4980894;28;20216;-48
2023/07/05 09:25:05;;;;;;;12.65;10.40;;;;;;;14.32;100.00;100344.97;4982983;28;20272;-46
2023/07/05 09:27:38;;;;;;;14.50;10.82;;;;;;;14.24;100.00;100345.47;4988716;28;20209;-48
2023/07/05 09:30:19;;;;;;;12.23;10.68;;;;;;;14.33;100.00;100344.91;4992357;28;20205;-47
2023/07/05 09:32:49;;;;;;;13.38;10.45;;;;;;;14.51;100.00;100347.41;4985322;28;20172;-47
2023/07/05 09:35:28;;;;;;;12.85;10.48;;;;;;;14.61;100.00;100341.38;4983662;28;20240;-47
2023/07/05 09:38:31;;;;;;;11.73;10.52;;;;;;;14.70;100.00;100348.03;4978253;28;20181;-48
2023/07/05 09:41:13;;;;;;;14.07;10.07;;;;;;;14.57;100.00;100347.94;4986468;28;20174;-49
2023/07/05 09:43:38;;;;;;;12.85;11.38;;;;;;;14.73;100.00;100350.53;4985392;28;20606;-48
2023/07/05 09:46:19;;;;;;;13.32;10.55;;;;;;;14.82;100.00;100341.88;4985647;28;20261;-48
2023/07/05 09:48:46;;;;;;;16.88;10.95;;;;;;;14.89;100.00;100342.34;4987224;28;20208;-48
2023/07/05 09:51:12;;;;;;;12.73;10.40;;;;;;;15.21;100.00;100344.78;4979390;28;20261;-47
2023/07/05 09:53:42;;;;;;;12.35;10.48;;;;;;;15.23;100.00;100337.44;4988000;28;20217;-47
2023/07/05 09:56:18;;;;;;;13.63;10.85;;;;;;;15.36;100.00;100334.81;4984768;28;20292;-46
2023/07/05 09:58:44;;;;;;;15.50;10.52;;;;;;;15.90;100.00;100334.81;4998937;28;20185;-47
2023/07/05 10:01:23;;;;;;;12.63;10.25;;;;;;;15.94;100.00;100320.13;4978056;28;20298;-48
2023/07/05 10:03:57;;;;;;;10.48;9.32;;;;;;;16.06;100.00;100308.44;4983858;28;20224;-47
2023/07/05 10:06:24;;;;;;;9.85;8.85;;;;;;;16.09;100.00;100307.34;4990286;28;20609;-48
2023/07/05 10:08:52;;;;;;;13.55;8.32;;;;;;;16.61;100.00;100300.97;4979887;28;20204;-48
2023/07/05 10:11:19;;;;;;;10.27;9.20;;;;;;;17.09;100.00;100306.50;4983383;28;20181;-48
2023/07/05 10:13:45;;;;;;;9.15;8.20;;;;;;;16.82;100.00;100285.06;4983144;28;20185;-48
2023/07/05 10:16:10;;;;;;;8.93;7.65;;;;;;;16.99;100.00;100283.81;4979809;28;20763;-49
2023/07/05 10:18:40;;;;;;;8.63;7.63;;;;;;;17.00;100.00;100274.72;4982152;28;20174;-49
2023/07/05 10:21:17;;;;;;;7.85;7.05;;;;;;;17.42;100.00;100260.78;4982755;28;20656;-48
2023/07/05 10:23:44;;;;;;;9.82;7.10;;;;;;;17.25;100.00;100254.81;4984144;28;20281;-47
2023/07/05 10:26:11;;;;;;;7.18;6.57;;;;;;;16.92;100.00;100244.63;4985237;28;20177;-47
2023/07/05 10:28:41;;;;;;;6.70;6.05;;;;;;;16.74;100.00;100238.72;4980589;28;20189;-46
2023/07/05 10:31:25;;;;;;;10.18;6.25;;;;;;;16.61;100.00;100254.97;4980201;28;20585;-47
2023/07/05 10:34:07;;;;;;;7.28;6.25;;;;;;;16.41;100.00;100237.50;4985869;28;20213;-48
2023/07/05 10:36:33;;;;;;;8.10;7.05;;;;;;;16.55;100.00;100232.94;4988029;28;20197;-47
2023/07/05 10:38:58;;;;;;;6.80;6.05;;;;;;;16.50;100.00;100227.00;4985945;28;20190;-48
2023/07/05 10:41:33;;;;;;;6.95;5.15;;;;;;;16.59;100.00;100245.25;4983263;28;20202;-49
2023/07/05 10:44:04;;;;;;;4.22;3.75;;;;;;;16.49;100.00;100239.66;4987459;28;20686;-46
2023/07/05 10:46:30;;;;;;;4.13;3.67;;;;;;;17.26;100.00;100228.59;4978555;28;20602;-47
2023/07/05 10:48:57;;;;;;;4.20;3.28;;;;;;;17.60;100.00;100220.59;4981307;28;20174;-48
2023/07/05 10:51:25;;;;;;;3.10;2.80;;;;;;;17.89;100.00;100207.53;4981232;28;20197;-48
2023/07/05 10:53:59;;;;;;;3.60;3.30;;;;;;;18.19;100.00;100197.91;4983290;28;20561;-49
2023/07/05 10:56:31;;;;;;;4.35;2.88;;;;;;;18.47;98.19;100205.53;4981063;28;20229;-48
2023/07/05 10:59:16;;;;;;;3.08;2.58;;;;;;;18.39;93.67;100191.75;4982788;28;20647;-47
2023/07/05 11:02:05;;;;;;;2.97;2.67;;;;;;;18.50;90.46;100189.03;4983118;28;20181;-48
2023/07/05 11:04:33;;;;;;;3.70;2.83;;;;;;;18.83;87.12;100183.72;4982762;28;20218;-47
2023/07/05 11:07:10;;;;;;;3.58;2.50;;;;;;;18.66;83.19;100175.06;4983545;28;20253;-48
2023/07/05 11:09:37;;;;;;;2.60;2.40;;;;;;;18.92;82.29;100159.34;4981686;28;20635;-49
2023/07/05 11:12:10;;;;;;;3.60;2.65;;;;;;;19.16;79.94;100155.56;4981894;28;20539;-49
2023/07/05 11:14:36;;;;;;;3.10;2.53;;;;;;;18.99;79.15;100156.97;4985847;28;20726;-48
2023/07/05 11:17:05;;;;;;;2.83;2.17;;;;;;;19.19;78.45;100149.84;4979660;28;20253;-48
2023/07/05 11:19:31;;;;;;;5.40;2.50;;;;;;;19.06;78.51;100176.34;4985060;28;20186;-48